createdAt,value
2018-12-13T00:01:13.539Z,23.13
2018-12-13T00:03:41.939Z,26.40
2018-12-13T00:06:10.459Z,21.90
2018-12-13T00:08:38.929Z,25.93
2018-12-13T00:11:07.410Z,24.27
2018-12-13T00:13:35.807Z,25.43
2018-12-13T00:16:04.285Z,25.73
2018-12-13T00:18:32.726Z,25.63
2018-12-13T00:21:01.135Z,22.87
2018-12-13T00:23:29.551Z,26.07
2018-12-13T00:25:58.009Z,26.83
2018-12-13T00:28:26.415Z,27.03
2018-12-13T00:30:54.797Z,25.13
2018-12-13T00:33:23.214Z,26.57
2018-12-13T00:35:51.603Z,27.30
2018-12-13T00:38:20.094Z,28.00
2018-12-13T00:40:48.480Z,27.03
2018-12-13T00:43:16.963Z,28.07
2018-12-13T00:45:45.378Z,27.27
2018-12-13T00:48:13.805Z,24.33
2018-12-13T00:50:42.291Z,26.97
2018-12-13T00:53:10.693Z,27.90
2018-12-13T00:55:39.151Z,26.63
2018-12-13T00:58:07.640Z,23.67
2018-12-13T01:00:36.108Z,22.70
2018-12-13T01:03:04.560Z,27.60
2018-12-13T01:05:33.076Z,28.00
2018-12-13T01:08:02.147Z,24.20
2018-12-13T01:10:30.543Z,22.70
2018-12-13T01:12:59.035Z,25.20
2018-12-13T01:15:29.150Z,26.67
2018-12-13T01:17:57.538Z,27.10
2018-12-13T01:20:25.950Z,27.10
2018-12-13T01:22:54.358Z,27.83
2018-12-13T01:25:22.871Z,27.87
2018-12-13T01:27:51.356Z,25.53
2018-12-13T01:30:19.831Z,30.80
2018-12-13T01:32:48.315Z,28.57
2018-12-13T01:35:16.715Z,28.37
2018-12-13T01:37:45.109Z,29.93
2018-12-13T01:40:13.563Z,27.80
2018-12-13T01:42:41.949Z,28.30
2018-12-13T01:45:10.451Z,31.37
2018-12-13T01:47:38.847Z,29.07
2018-12-13T01:50:07.477Z,29.70
2018-12-13T01:52:35.881Z,30.00
2018-12-13T01:55:04.428Z,31.40
2018-12-13T01:57:32.819Z,30.43
2018-12-13T02:00:01.246Z,31.70
2018-12-13T02:02:29.983Z,32.00
2018-12-13T02:04:58.479Z,30.40
2018-12-13T02:07:26.881Z,27.90
2018-12-13T02:09:55.261Z,30.37
2018-12-13T02:12:23.726Z,29.87
2018-12-13T02:14:52.120Z,30.70
2018-12-13T02:17:20.580Z,27.27
2018-12-13T02:19:49.074Z,28.27
2018-12-13T02:22:17.462Z,26.17
2018-12-13T02:24:45.852Z,25.33
2018-12-13T02:27:14.282Z,28.77
2018-12-13T02:29:42.683Z,25.43
2018-12-13T02:32:11.157Z,28.33
2018-12-13T02:34:40.036Z,26.10
2018-12-13T02:37:08.654Z,24.37
2018-12-13T02:39:37.066Z,26.30
2018-12-13T02:42:05.876Z,26.40
2018-12-13T02:44:34.374Z,25.93
2018-12-13T02:47:03.018Z,26.13
2018-12-13T02:49:31.830Z,25.00
2018-12-13T02:52:00.750Z,27.10
2018-12-13T02:54:30.032Z,25.47
2018-12-13T02:56:58.424Z,28.77
2018-12-13T02:59:26.890Z,27.60
2018-12-13T03:01:55.287Z,23.43
2018-12-13T03:04:24.568Z,27.50
2018-12-13T03:06:53.065Z,26.57
2018-12-13T03:09:21.738Z,29.17
2018-12-13T03:11:50.221Z,28.10
2018-12-13T03:14:18.618Z,29.20
2018-12-13T03:16:47.025Z,26.07
2018-12-13T03:19:15.414Z,25.77
2018-12-13T03:21:43.835Z,25.60
2018-12-13T03:24:12.332Z,28.17
2018-12-13T03:26:42.005Z,28.13
2018-12-13T03:29:10.417Z,25.03
2018-12-13T03:31:38.821Z,24.23
2018-12-13T03:34:07.267Z,25.67
2018-12-13T03:36:35.857Z,26.87
2018-12-13T03:39:06.747Z,25.20
2018-12-13T03:41:35.554Z,23.60
2018-12-13T03:44:04.367Z,24.97
2018-12-13T03:46:32.759Z,23.83
2018-12-13T03:49:01.176Z,24.50
2018-12-13T03:51:29.611Z,23.40
2018-12-13T03:53:58.113Z,23.53
2018-12-13T03:56:26.505Z,25.87
2018-12-13T03:58:55.209Z,26.47
2018-12-13T04:01:23.624Z,25.17
2018-12-13T04:03:52.105Z,24.47
2018-12-13T04:06:20.591Z,25.27
2018-12-13T04:08:49.080Z,26.60
2018-12-13T04:11:17.561Z,26.93
2018-12-13T04:13:46.994Z,22.83
2018-12-13T04:16:15.707Z,27.97
2018-12-13T04:18:44.111Z,26.97
2018-12-13T04:21:12.508Z,27.23
2018-12-13T04:23:41.543Z,24.83
2018-12-13T04:26:09.938Z,26.30
2018-12-13T04:28:38.359Z,27.50
2018-12-13T04:31:06.755Z,27.27
2018-12-13T04:33:35.408Z,23.83
2018-12-13T04:36:03.798Z,26.67
2018-12-13T04:38:32.207Z,27.97
2018-12-13T04:41:00.593Z,27.60
2018-12-13T04:43:29.076Z,25.53
2018-12-13T04:45:57.513Z,27.03
2018-12-13T04:48:25.923Z,28.53
2018-12-13T04:50:54.309Z,28.23
2018-12-13T04:53:22.766Z,27.83
2018-12-13T04:55:51.158Z,28.53
2018-12-13T04:58:19.575Z,26.77
2018-12-13T05:00:47.954Z,29.03
2018-12-13T05:03:16.355Z,27.87
2018-12-13T05:05:44.856Z,29.87
2018-12-13T05:08:13.339Z,34.77
2018-12-13T05:10:50.769Z,33.03
2018-12-13T05:13:19.519Z,32.87
2018-12-13T05:15:47.914Z,30.00
2018-12-13T05:18:16.319Z,35.90
2018-12-13T05:20:44.880Z,35.53
2018-12-13T05:23:13.338Z,36.10
2018-12-13T05:25:41.818Z,37.67
2018-12-13T05:28:10.222Z,34.80
2018-12-13T05:30:38.684Z,37.33
2018-12-13T05:33:07.704Z,35.83
2018-12-13T05:35:36.114Z,36.03
2018-12-13T05:38:04.504Z,33.93
2018-12-13T05:40:32.991Z,35.47
2018-12-13T05:43:01.387Z,36.47
2018-12-13T05:45:29.795Z,34.63
2018-12-13T05:47:58.181Z,37.77
2018-12-13T05:50:26.631Z,36.97
2018-12-13T05:52:55.016Z,36.63
2018-12-13T05:55:23.487Z,36.73
2018-12-13T05:57:51.883Z,38.20
2018-12-13T06:00:20.347Z,40.17
2018-12-13T06:02:48.892Z,39.17
2018-12-13T06:05:17.441Z,46.37
2018-12-13T06:07:46.625Z,39.90
2018-12-13T06:10:15.045Z,39.33
2018-12-13T06:12:43.762Z,39.87
2018-12-13T06:15:12.242Z,39.97
2018-12-13T06:17:40.996Z,43.17
2018-12-13T06:20:09.698Z,40.43
2018-12-13T06:22:38.109Z,41.63
2018-12-13T06:25:07.347Z,39.53
2018-12-13T06:27:35.745Z,39.17
2018-12-13T06:30:07.662Z,45.00
2018-12-13T06:32:36.149Z,40.00
2018-12-13T06:35:04.992Z,41.60
2018-12-13T06:37:33.438Z,43.70
2018-12-13T06:40:01.881Z,43.33
2018-12-13T06:42:30.805Z,41.13
2018-12-13T06:44:59.198Z,45.30
2018-12-13T06:47:27.648Z,40.57
2018-12-13T06:49:56.728Z,45.37
2018-12-13T06:52:25.224Z,38.10
2018-12-13T06:54:53.610Z,44.40
2018-12-13T06:57:22.020Z,40.83
2018-12-13T06:59:50.422Z,41.67
2018-12-13T07:02:18.831Z,39.87
2018-12-13T07:04:47.251Z,35.50
2018-12-13T07:07:15.701Z,37.20
2018-12-13T07:09:44.193Z,39.10
2018-12-13T07:12:12.649Z,40.67
2018-12-13T07:14:41.053Z,38.87
2018-12-13T07:17:09.467Z,32.03
2018-12-13T07:19:37.900Z,38.53
2018-12-13T07:22:06.287Z,50.23
2018-12-13T07:24:34.687Z,37.10
2018-12-13T07:27:03.107Z,38.37
2018-12-13T07:29:31.611Z,44.50
2018-12-13T07:32:00.095Z,37.17
2018-12-13T07:34:28.493Z,44.60
2018-12-13T07:36:56.955Z,42.20
2018-12-13T07:39:25.409Z,43.53
2018-12-13T07:41:53.840Z,43.03
2018-12-13T07:44:22.285Z,47.47
2018-12-13T07:46:50.771Z,45.40
2018-12-13T07:49:19.177Z,46.00
2018-12-13T07:51:47.651Z,52.33
2018-12-13T07:54:16.115Z,42.50
2018-12-13T07:56:44.512Z,51.27
2018-12-13T07:59:12.958Z,44.93
2018-12-13T08:01:41.692Z,44.63
2018-12-13T08:04:10.140Z,46.23
2018-12-13T08:06:38.652Z,50.33
2018-12-13T08:09:07.612Z,46.13
2018-12-13T08:11:36.018Z,46.03
2018-12-13T08:14:04.911Z,48.60
2018-12-13T08:16:33.289Z,44.63
2018-12-13T08:19:01.697Z,49.53
2018-12-13T08:21:30.110Z,49.57
2018-12-13T08:23:58.509Z,42.93
2018-12-13T08:26:26.903Z,44.60
2018-12-13T08:28:56.060Z,48.00
2018-12-13T08:31:24.477Z,43.90
2018-12-13T08:33:53.293Z,48.00
2018-12-13T08:36:21.751Z,42.27
2018-12-13T08:38:50.146Z,46.07
2018-12-13T08:41:18.585Z,39.37
2018-12-13T08:43:46.990Z,44.80
2018-12-13T08:46:15.433Z,43.73
2018-12-13T08:48:43.858Z,43.73
2018-12-13T08:51:12.258Z,52.10
2018-12-13T08:53:40.662Z,47.17
2018-12-13T08:56:09.054Z,44.63
2018-12-13T08:58:37.576Z,47.87
2018-12-13T09:01:05.996Z,51.50
2018-12-13T09:03:34.395Z,58.30
2018-12-13T09:06:02.874Z,46.53
2018-12-13T09:08:33.796Z,47.30
2018-12-13T09:11:01.797Z,51.47
2018-12-13T09:13:30.179Z,47.33
2018-12-13T09:15:59.389Z,45.33
2018-12-13T09:18:27.787Z,49.27
2018-12-13T09:20:56.183Z,48.53
2018-12-13T09:23:24.629Z,47.60
2018-12-13T09:25:53.049Z,46.23
2018-12-13T09:28:21.487Z,50.80
2018-12-13T09:30:49.896Z,52.80
2018-12-13T09:33:18.281Z,48.63
2018-12-13T09:35:46.801Z,53.37
2018-12-13T09:38:15.309Z,53.23
2018-12-13T09:40:43.764Z,55.83
2018-12-13T09:43:12.222Z,51.90
2018-12-13T09:45:40.625Z,53.80
2018-12-13T09:48:09.003Z,52.37
2018-12-13T09:50:37.479Z,50.63
2018-12-13T09:53:05.970Z,45.73
2018-12-13T09:55:34.440Z,44.43
2018-12-13T09:58:02.925Z,45.40
2018-12-13T10:00:31.413Z,49.37
2018-12-13T10:03:00.097Z,48.03
2018-12-13T10:05:28.584Z,44.33
2018-12-13T10:07:57.052Z,43.57
2018-12-13T10:10:25.578Z,46.53
2018-12-13T10:12:54.018Z,41.73
2018-12-13T10:15:22.496Z,50.83
2018-12-13T10:17:50.968Z,56.30
2018-12-13T10:20:19.361Z,50.50
2018-12-13T10:22:47.777Z,50.37
2018-12-13T10:25:16.220Z,49.00
2018-12-13T10:27:45.561Z,56.57
2018-12-13T10:30:14.132Z,52.00
2018-12-13T10:32:42.701Z,50.67
2018-12-13T10:35:11.579Z,46.30
2018-12-13T10:37:40.453Z,42.10
2018-12-13T10:40:09.078Z,48.20
2018-12-13T10:42:37.470Z,44.87
2018-12-13T10:45:06.693Z,43.10
2018-12-13T10:47:35.104Z,44.20
2018-12-13T10:50:03.992Z,39.30
2018-12-13T10:52:33.412Z,45.07
2018-12-13T10:55:02.076Z,42.10
2018-12-13T10:57:30.476Z,44.47
2018-12-13T10:59:58.862Z,40.47
2018-12-13T11:02:33.438Z,38.90
2018-12-13T11:05:01.949Z,48.33
2018-12-13T11:07:32.289Z,42.93
2018-12-13T11:10:00.749Z,42.27
2018-12-13T11:12:29.139Z,37.87
2018-12-13T11:14:57.551Z,35.87
2018-12-13T11:17:25.930Z,40.83
2018-12-13T11:19:54.338Z,37.03
2018-12-13T11:22:22.758Z,34.37
2018-12-13T11:24:51.193Z,33.33
2018-12-13T11:27:30.988Z,35.10
2018-12-13T11:30:10.182Z,31.80
2018-12-13T11:32:41.906Z,27.77
2018-12-13T11:35:10.290Z,31.30
2018-12-13T11:37:38.710Z,30.77
2018-12-13T11:40:07.307Z,29.07
2018-12-13T11:42:35.757Z,28.03
2018-12-13T11:45:04.762Z,25.13
2018-12-13T11:47:33.872Z,25.73
2018-12-13T11:50:02.362Z,22.83
2018-12-13T11:52:30.862Z,26.83
2018-12-13T11:55:02.528Z,26.80
2018-12-13T11:57:31.004Z,26.20
2018-12-13T11:59:59.392Z,27.97
2018-12-13T12:02:27.965Z,27.23
2018-12-13T12:04:56.446Z,27.87
2018-12-13T12:07:24.905Z,28.07
2018-12-13T12:09:53.335Z,27.40
2018-12-13T12:12:21.822Z,28.10
2018-12-13T12:14:50.215Z,27.10
2018-12-13T12:17:18.663Z,25.57
2018-12-13T12:19:47.106Z,24.57
2018-12-13T12:22:15.565Z,24.60
2018-12-13T12:24:43.948Z,27.90
2018-12-13T12:27:12.423Z,27.60
2018-12-13T12:29:40.845Z,25.90
2018-12-13T12:32:09.224Z,30.23
2018-12-13T12:34:37.627Z,28.63
2018-12-13T12:37:06.050Z,26.70
2018-12-13T12:39:34.737Z,25.10
2018-12-13T12:42:03.228Z,28.03
2018-12-13T12:44:34.862Z,26.13
2018-12-13T12:47:03.304Z,27.30
2018-12-13T12:49:31.686Z,25.67
2018-12-13T12:52:00.072Z,24.77
2018-12-13T12:54:28.492Z,25.57
2018-12-13T12:56:56.890Z,29.80
2018-12-13T12:59:25.385Z,29.20
2018-12-13T13:01:53.955Z,26.17
2018-12-13T13:04:22.716Z,30.00
2018-12-13T13:06:51.141Z,27.47
2018-12-13T13:09:24.801Z,27.03
2018-12-13T13:11:49.939Z,27.07
2018-12-13T13:14:18.367Z,27.57
2018-12-13T13:16:46.768Z,27.03
2018-12-13T13:19:15.136Z,25.77
2018-12-13T13:21:43.643Z,31.00
2018-12-13T13:24:12.051Z,26.97
2018-12-13T13:26:40.467Z,31.10
2018-12-13T13:29:08.859Z,24.40
2018-12-13T13:31:37.249Z,28.67
2018-12-13T13:34:05.673Z,27.27
2018-12-13T13:36:34.073Z,27.57
2018-12-13T13:39:02.479Z,32.67
2018-12-13T13:41:30.993Z,30.47
2018-12-13T13:43:59.392Z,34.10
2018-12-13T13:46:27.787Z,29.10
2018-12-13T13:48:56.232Z,24.40
2018-12-13T13:51:24.627Z,27.80
2018-12-13T13:53:53.056Z,24.70
2018-12-13T13:56:21.545Z,25.33
2018-12-13T13:58:49.969Z,24.90
2018-12-13T14:01:18.396Z,25.73
2018-12-13T14:03:46.904Z,26.83
2018-12-13T14:06:15.322Z,26.03
2018-12-13T14:08:43.777Z,25.13
2018-12-13T14:11:12.181Z,29.73
2018-12-13T14:13:40.688Z,27.03
2018-12-13T14:16:09.224Z,26.13
2018-12-13T14:18:37.636Z,26.30
2018-12-13T14:21:06.082Z,33.77
2018-12-13T14:23:34.561Z,29.80
2018-12-13T14:26:02.949Z,25.50
2018-12-13T14:28:31.524Z,31.80
2018-12-13T14:30:59.967Z,27.87
2018-12-13T14:33:28.362Z,26.53
2018-12-13T14:35:56.832Z,28.37
2018-12-13T14:38:25.294Z,30.33
2018-12-13T14:40:53.709Z,28.83
2018-12-13T14:43:22.178Z,30.27
2018-12-13T14:45:50.656Z,28.50
2018-12-13T14:48:19.088Z,26.40
2018-12-13T14:50:47.575Z,30.83
2018-12-13T14:53:15.983Z,28.33
2018-12-13T14:55:44.516Z,29.63
2018-12-13T14:58:13.099Z,27.83
2018-12-13T15:00:41.643Z,30.13
2018-12-13T15:03:10.094Z,25.93
2018-12-13T15:05:38.709Z,25.43
2018-12-13T15:08:07.147Z,26.03
2018-12-13T15:10:35.581Z,28.13
2018-12-13T15:13:04.019Z,29.43
2018-12-13T15:15:32.435Z,29.03
2018-12-13T15:18:01.045Z,28.60
2018-12-13T15:20:29.527Z,31.30
2018-12-13T15:22:58.033Z,30.17
2018-12-13T15:25:26.693Z,33.53
2018-12-13T15:27:55.098Z,32.67
2018-12-13T15:30:23.496Z,30.07
2018-12-13T15:32:51.938Z,29.87
2018-12-13T15:35:20.376Z,32.97
2018-12-13T15:37:48.785Z,27.63
2018-12-13T15:40:17.179Z,30.83
2018-12-13T15:42:45.649Z,29.70
2018-12-13T15:45:14.305Z,26.40
2018-12-13T15:47:42.701Z,27.40
2018-12-13T15:50:11.155Z,26.17
2018-12-13T15:52:39.646Z,28.57
2018-12-13T15:55:08.110Z,28.03
2018-12-13T15:57:36.619Z,32.60
2018-12-13T16:00:08.125Z,30.53
2018-12-13T16:02:36.636Z,29.93
2018-12-13T16:05:06.051Z,27.17
2018-12-13T16:07:34.448Z,23.03
2018-12-13T16:10:04.022Z,29.47
2018-12-13T16:12:32.870Z,27.20
2018-12-13T16:15:01.326Z,27.03
2018-12-13T16:17:29.707Z,28.50
2018-12-13T16:19:58.210Z,26.43
2018-12-13T16:22:26.847Z,27.03
2018-12-13T16:24:55.328Z,26.63
2018-12-13T16:27:23.978Z,26.00
2018-12-13T16:29:52.646Z,28.47
2018-12-13T16:32:21.031Z,23.73
2018-12-13T16:34:49.434Z,28.83
2018-12-13T16:37:17.867Z,32.83
2018-12-13T16:39:46.289Z,27.80
2018-12-13T16:42:14.671Z,27.50
2018-12-13T16:44:43.100Z,25.03
2018-12-13T16:47:11.491Z,26.80
2018-12-13T16:49:39.893Z,24.17
2018-12-13T16:52:08.443Z,25.80
2018-12-13T16:54:36.841Z,24.53
2018-12-13T16:57:05.267Z,24.97
2018-12-13T16:59:33.668Z,23.60
2018-12-13T17:02:02.131Z,23.70
2018-12-13T17:04:30.613Z,25.03
2018-12-13T17:06:59.006Z,23.33
2018-12-13T17:09:27.485Z,32.77
2018-12-13T17:11:55.898Z,26.30
2018-12-13T17:14:24.292Z,26.23
2018-12-13T17:16:52.692Z,24.17
2018-12-13T17:19:21.182Z,26.70
2018-12-13T17:21:49.600Z,28.30
2018-12-13T17:24:17.996Z,24.67
2018-12-13T17:26:46.462Z,31.17
2018-12-13T17:29:14.848Z,28.27
2018-12-13T17:31:43.304Z,25.60
2018-12-13T17:34:11.706Z,27.97
2018-12-13T17:36:40.162Z,29.03
2018-12-13T17:39:08.554Z,26.87
2018-12-13T17:41:37.013Z,26.03
2018-12-13T17:44:05.470Z,28.47
2018-12-13T17:46:33.874Z,26.83
2018-12-13T17:49:02.282Z,28.63
2018-12-13T17:51:30.950Z,28.53
2018-12-13T17:53:59.590Z,26.97
2018-12-13T17:56:28.046Z,33.63
2018-12-13T17:58:56.440Z,28.43
2018-12-13T18:01:24.858Z,27.20
2018-12-13T18:03:53.256Z,26.83
2018-12-13T18:06:21.704Z,28.00
2018-12-13T18:08:50.105Z,27.90
2018-12-13T18:11:18.558Z,28.37
2018-12-13T18:13:46.984Z,27.57
2018-12-13T18:16:15.426Z,30.73
2018-12-13T18:18:43.907Z,32.37
2018-12-13T18:21:12.306Z,32.37
2018-12-13T18:23:41.463Z,30.83
2018-12-13T18:26:09.854Z,29.73
2018-12-13T18:28:38.354Z,27.73
2018-12-13T18:31:06.830Z,29.23
2018-12-13T18:33:35.233Z,29.33
2018-12-13T18:36:03.686Z,28.60
2018-12-13T18:38:32.168Z,28.20
2018-12-13T18:41:00.558Z,28.50
2018-12-13T18:43:29.130Z,30.43
2018-12-13T18:45:58.312Z,31.37
2018-12-13T18:48:26.692Z,31.83
2018-12-13T18:50:55.200Z,32.03
2018-12-13T18:53:23.601Z,29.77
2018-12-13T18:55:52.084Z,35.27
2018-12-13T18:58:20.564Z,31.37
2018-12-13T19:00:48.967Z,33.97
2018-12-13T19:03:17.377Z,36.50
2018-12-13T19:05:45.775Z,34.70
2018-12-13T19:08:14.231Z,30.87
2018-12-13T19:10:42.631Z,33.27
2018-12-13T19:13:11.112Z,35.07
2018-12-13T19:15:39.528Z,35.23
2018-12-13T19:18:08.171Z,30.17
2018-12-13T19:20:36.650Z,33.90
2018-12-13T19:23:05.145Z,35.07
2018-12-13T19:25:33.719Z,32.60
2018-12-13T19:28:02.197Z,39.00
2018-12-13T19:30:30.716Z,39.43
2018-12-13T19:32:59.163Z,33.87
2018-12-13T19:35:27.739Z,34.93
2018-12-13T19:37:56.138Z,37.27
2018-12-13T19:40:24.547Z,41.30
2018-12-13T19:42:53.001Z,39.47
2018-12-13T19:45:21.421Z,38.70
2018-12-13T19:47:49.829Z,37.80
2018-12-13T19:50:18.253Z,37.83
2018-12-13T19:52:46.663Z,39.93
2018-12-13T19:55:15.472Z,40.00
2018-12-13T19:57:44.079Z,35.13
2018-12-13T20:00:12.583Z,37.87
2018-12-13T20:02:40.969Z,38.20
2018-12-13T20:05:09.427Z,42.17
2018-12-13T20:07:37.818Z,36.80
2018-12-13T20:10:07.903Z,36.40
2018-12-13T20:12:36.407Z,35.07
2018-12-13T20:15:05.132Z,36.93
2018-12-13T20:17:33.677Z,36.13
2018-12-13T20:20:02.062Z,35.23
2018-12-13T20:22:30.475Z,39.00
2018-12-13T20:24:58.863Z,40.93
2018-12-13T20:27:27.397Z,38.07
2018-12-13T20:29:55.803Z,35.80
2018-12-13T20:32:24.458Z,38.13
2018-12-13T20:34:53.231Z,44.43
2018-12-13T20:37:21.878Z,38.23
2018-12-13T20:39:50.340Z,37.03
2018-12-13T20:42:18.754Z,32.67
2018-12-13T20:44:47.150Z,35.87
2018-12-13T20:47:15.568Z,33.67
2018-12-13T20:49:43.988Z,36.27
2018-12-13T20:52:12.370Z,33.50
2018-12-13T20:54:40.775Z,33.90
2018-12-13T20:57:09.164Z,34.43
2018-12-13T20:59:37.580Z,36.07
2018-12-13T21:02:06.276Z,33.93
2018-12-13T21:04:34.691Z,31.87
2018-12-13T21:07:08.476Z,33.07
2018-12-13T21:09:36.873Z,28.40
2018-12-13T21:12:05.272Z,32.30
2018-12-13T21:14:33.758Z,32.27
2018-12-13T21:17:02.153Z,34.10
2018-12-13T21:19:30.606Z,34.77
2018-12-13T21:21:59.012Z,31.30
2018-12-13T21:24:27.432Z,33.40
2018-12-13T21:26:55.957Z,35.57
2018-12-13T21:29:24.393Z,32.50
2018-12-13T21:31:52.781Z,30.50
2018-12-13T21:34:21.190Z,30.13
2018-12-13T21:36:49.587Z,31.13
2018-12-13T21:39:17.997Z,32.77
2018-12-13T21:41:46.502Z,28.83
2018-12-13T21:44:14.903Z,33.63
2018-12-13T21:46:43.395Z,29.27
2018-12-13T21:49:11.809Z,30.57
2018-12-13T21:51:40.567Z,28.43
2018-12-13T21:54:08.985Z,27.43
2018-12-13T21:56:37.427Z,24.03
2018-12-13T21:59:05.858Z,28.53
2018-12-13T22:01:34.259Z,30.47
2018-12-13T22:04:02.715Z,28.57
2018-12-13T22:06:31.096Z,28.83
2018-12-13T22:08:59.512Z,27.83
2018-12-13T22:11:27.934Z,28.97
2018-12-13T22:13:56.343Z,29.33
2018-12-13T22:16:24.745Z,28.23
2018-12-13T22:18:53.134Z,29.27
2018-12-13T22:21:21.576Z,29.97
2018-12-13T22:23:49.999Z,26.90
2018-12-13T22:26:18.482Z,30.93
2018-12-13T22:28:46.890Z,28.93
2018-12-13T22:31:15.309Z,30.70
2018-12-13T22:33:43.814Z,25.90
2018-12-13T22:36:12.234Z,29.10
2018-12-13T22:38:40.624Z,26.17
2018-12-13T22:41:09.092Z,28.10
2018-12-13T22:43:37.565Z,27.07
2018-12-13T22:46:06.124Z,29.17
2018-12-13T22:48:34.535Z,27.57
2018-12-13T22:51:02.927Z,27.53
2018-12-13T22:53:31.459Z,28.17
2018-12-13T22:55:59.937Z,29.90
2018-12-13T22:58:28.329Z,25.93
2018-12-13T23:00:56.813Z,25.33
2018-12-13T23:03:26.133Z,30.07
2018-12-13T23:05:54.524Z,27.87
2018-12-13T23:08:22.939Z,29.07
2018-12-13T23:10:51.432Z,30.93
2018-12-13T23:13:19.856Z,29.73
2018-12-13T23:15:49.126Z,27.83
2018-12-13T23:18:17.519Z,30.27
2018-12-13T23:20:45.940Z,27.13
2018-12-13T23:23:14.344Z,25.53
2018-12-13T23:25:42.741Z,27.53
2018-12-13T23:28:11.218Z,27.00
2018-12-13T23:30:39.624Z,30.47
2018-12-13T23:33:08.042Z,30.40
2018-12-13T23:35:36.541Z,27.10
2018-12-13T23:38:05.013Z,27.27
2018-12-13T23:40:33.425Z,29.63
2018-12-13T23:43:02.325Z,28.20
2018-12-13T23:45:30.837Z,31.87
2018-12-13T23:47:59.229Z,31.67
2018-12-13T23:50:27.624Z,31.13
2018-12-13T23:52:56.033Z,30.53
2018-12-13T23:55:24.431Z,31.63
2018-12-13T23:57:52.895Z,28.63
